Hayama Maru — JD2310 — position and weather

sailwx.info

Track history (hours):
 
Tides and Currents Weather Stations Pressure Air Temp Water Temp Dewpoint Dewpoint Depression Visibility Wind Speed Wind Dir Waves Ship Positions

Hayama Maru

Last reported at 2017-Oct-20 21:00 UTC. Time now 2017-Oct-20 21:17 UTC.
Position N 35°17' E 139°41'.

Length 40 m; draft 3 m.

Type: Tug. MMSI: 431101161.

Date/timePositionNaut miles runAvg speedWind from/ knotsBaromVisibWave heightAir tempDewpointWater temp
2017-Oct-20 21:00N 35°17' E 139°41'0 0.0
2017-Oct-20 20:30N 35°17' E 139°41'0 0.0
2017-Oct-20 20:00N 35°17' E 139°41'0 0.0
2017-Oct-20 19:30N 35°17' E 139°41'0 0.1
2017-Oct-20 19:00N 35°17' E 139°41'0 0.1
2017-Oct-20 18:30N 35°17' E 139°41'0 0.0
2017-Oct-20 18:00N 35°17' E 139°41'0 0.1
2017-Oct-20 17:30N 35°17' E 139°41'0 0.1
2017-Oct-20 17:00N 35°17' E 139°41'0 0.0
2017-Oct-20 16:30N 35°17' E 139°41'0 0.0
2017-Oct-20 16:00N 35°17' E 139°41'0 0.0
2017-Oct-20 15:30N 35°17' E 139°41'0 0.1
2017-Oct-20 15:00N 35°17' E 139°41'0 0.1
2017-Oct-20 14:30N 35°17' E 139°41'0 0.0
2017-Oct-20 13:30N 35°17' E 139°41'0 0.0
2017-Oct-20 13:00N 35°17' E 139°41'0 0.0
2017-Oct-20 12:30N 35°17' E 139°41'2 3.3
2017-Oct-20 12:00N 35°18' E 139°42'510.8
2017-Oct-20 11:30N 35°13' E 139°45'4 7.5
2017-Oct-20 11:00N 35°17' E 139°45'612.3
2017-Oct-20 10:30N 35°22' E 139°42'1 1.6
2017-Oct-20 10:00N 35°22' E 139°43'5 2.1
2017-Oct-20 07:33N 35°17' E 139°41'0 0.0
2017-Oct-20 03:22N 35°17' E 139°41'3 9.6
2017-Oct-20 03:00N 35°16' E 139°45'3 5.9
2017-Oct-20 02:30N 35°14' E 139°46'612.0
2017-Oct-20 02:01N 35°19' E 139°43'612.4
2017-Oct-20 01:30N 35°25' E 139°43'3 5.2
2017-Oct-20 01:00N 35°28' E 139°44'0 0.3
2017-Oct-20 00:30N 35°28' E 139°44'3 6.7
2017-Oct-20 00:00N 35°25' E 139°43'611.5
2017-Oct-19 23:30N 35°19' E 139°42'2 4.5
2017-Oct-19 23:00N 35°17' E 139°41'0 0.1
2017-Oct-19 22:30N 35°17' E 139°41'0 0.0
2017-Oct-19 22:00N 35°17' E 139°41'0 0.0
2017-Oct-19 21:30N 35°17' E 139°41'0 0.0
2017-Oct-19 21:00N 35°17' E 139°41'0 0.0
2017-Oct-19 20:30N 35°17' E 139°41'0 0.0
2017-Oct-19 20:00N 35°17' E 139°41'0 0.0
2017-Oct-19 19:30N 35°17' E 139°41'0 0.0
2017-Oct-19 19:00N 35°17' E 139°41'0 0.0
2017-Oct-19 18:30N 35°17' E 139°41'0 0.0
2017-Oct-19 18:00N 35°17' E 139°41'0 0.0
2017-Oct-19 17:30N 35°17' E 139°41'0 0.0
2017-Oct-19 17:00N 35°17' E 139°41'0 0.0
2017-Oct-19 16:30N 35°17' E 139°41'0 0.0
2017-Oct-19 16:00N 35°17' E 139°41'0 0.0
2017-Oct-19 15:30N 35°17' E 139°41'0 0.0
2017-Oct-19 15:00N 35°17' E 139°41'0 0.0
2017-Oct-19 14:30N 35°17' E 139°41'0 0.0
2017-Oct-19 14:00N 35°17' E 139°41'0 0.0
2017-Oct-19 13:30N 35°17' E 139°41'0 0.0
2017-Oct-19 13:00N 35°17' E 139°41'0 0.0
2017-Oct-19 12:30N 35°17' E 139°41'0 0.0
2017-Oct-19 12:00N 35°17' E 139°41'0 0.0
2017-Oct-19 11:30N 35°17' E 139°41'0 0.0
2017-Oct-19 11:00N 35°17' E 139°41'0 0.0
2017-Oct-19 10:30N 35°17' E 139°41'0 0.0
2017-Oct-19 10:00N 35°17' E 139°41'0 0.0
2017-Oct-19 09:30N 35°17' E 139°41'0 0.0
2017-Oct-19 09:00N 35°17' E 139°41'0 0.0
2017-Oct-19 08:30N 35°17' E 139°41'0 0.0
2017-Oct-19 08:00N 35°17' E 139°41'0 0.0
2017-Oct-19 07:30N 35°17' E 139°41'0 0.1
2017-Oct-19 07:00N 35°17' E 139°41'0 0.0
2017-Oct-19 06:30N 35°17' E 139°41'0 0.0
2017-Oct-19 06:00N 35°17' E 139°41'0 0.0
2017-Oct-19 05:30N 35°17' E 139°41'2 3.6
2017-Oct-19 05:01N 35°17' E 139°43'5 9.9
2017-Oct-19 04:30N 35°13' E 139°46'4 7.9
2017-Oct-19 04:00N 35°17' E 139°45'612.1
2017-Oct-19 03:30N 35°22' E 139°41'2 4.6
2017-Oct-19 03:00N 35°24' E 139°39'0 0.7
2017-Oct-19 02:30N 35°24' E 139°39'1 1.1
2017-Oct-19 02:00N 35°23' E 139°40'0 0.1
2017-Oct-19 01:30N 35°23' E 139°40'0 0.0
2017-Oct-19 01:00N 35°23' E 139°40'0 0.0
2017-Oct-19 00:30N 35°23' E 139°40'5 9.0
2017-Oct-19 00:00N 35°25' E 139°44'4 7.8
2017-Oct-18 23:31N 35°22' E 139°45'611.2
2017-Oct-18 23:00N 35°16' E 139°46'611.1
2017-Oct-18 22:30N 35°11' E 139°47'1 1.5
2017-Oct-18 22:00N 35°11' E 139°46'611.4
2017-Oct-18 21:30N 35°17' E 139°44'3 5.7
2017-Oct-18 21:00N 35°17' E 139°41'0 0.0
2017-Oct-18 20:30N 35°17' E 139°41'0 0.0
2017-Oct-18 20:00N 35°17' E 139°41'0 0.0
2017-Oct-18 19:30N 35°17' E 139°41'0 0.0
2017-Oct-18 19:01N 35°17' E 139°41'0 0.0
2017-Oct-18 18:29N 35°17' E 139°41'0 0.0
2017-Oct-18 18:01N 35°17' E 139°41'0 0.0
2017-Oct-18 17:30N 35°17' E 139°41'0 0.0
2017-Oct-18 17:00N 35°17' E 139°41'0 0.0
2017-Oct-18 16:30N 35°17' E 139°41'0 0.0
2017-Oct-18 16:00N 35°17' E 139°41'0 0.0
2017-Oct-18 15:31N 35°17' E 139°41'0 0.0
2017-Oct-18 15:00N 35°17' E 139°41'0 0.0
2017-Oct-18 14:00N 35°17' E 139°41'0 0.0
2017-Oct-18 13:30N 35°17' E 139°41'0 0.0
2017-Oct-18 13:00N 35°17' E 139°41'0 0.0
2017-Oct-18 12:30N 35°17' E 139°41'0 0.0
2017-Oct-18 12:01N 35°17' E 139°41'0 0.0
2017-Oct-18 11:30N 35°17' E 139°41'0 0.0
2017-Oct-18 11:00N 35°17' E 139°41'0 0.0
2017-Oct-18 10:30N 35°17' E 139°41'0 0.0
2017-Oct-18 10:00N 35°17' E 139°41'0 0.0
2017-Oct-18 09:30N 35°17' E 139°41'0 0.0
2017-Oct-18 09:01N 35°17' E 139°41'0 0.0
2017-Oct-18 08:30N 35°17' E 139°41'0 0.0
2017-Oct-18 08:01N 35°17' E 139°41'0 0.0
2017-Oct-18 07:30N 35°17' E 139°41'0 0.0
2017-Oct-18 07:00N 35°17' E 139°41'0 0.0
2017-Oct-18 06:30N 35°17' E 139°41'0 0.0
2017-Oct-18 06:00N 35°17' E 139°41'0 0.0
2017-Oct-18 05:30N 35°17' E 139°41'0 0.0
2017-Oct-18 05:00N 35°17' E 139°41'0 0.0
2017-Oct-18 04:31N 35°17' E 139°41'0 0.0
2017-Oct-18 04:00N 35°17' E 139°41'0 0.0
2017-Oct-18 03:30N 35°17' E 139°41'0 0.0
2017-Oct-18 03:00N 35°17' E 139°41'0 0.0
2017-Oct-18 02:29N 35°17' E 139°41'0 0.0
2017-Oct-18 01:59N 35°17' E 139°41'4 7.9
2017-Oct-18 01:28N 35°21' E 139°42'2 3.6
2017-Oct-18 01:01N 35°20' E 139°43'612.8
2017-Oct-18 00:30N 35°14' E 139°47'5 9.2
2017-Oct-18 00:01N 35°10' E 139°46'4 8.7
2017-Oct-17 23:30N 35°14' E 139°46'510.0
2017-Oct-17 23:00N 35°17' E 139°41'0 0.6
2017-Oct-17 22:30N 35°17' E 139°41'0 0.0
2017-Oct-17 22:00N 35°17' E 139°41'0 0.0
2017-Oct-17 21:30N 35°17' E 139°41'0 0.0
2017-Oct-17 21:00N 35°17' E 139°41'0 0.0
2017-Oct-17 20:30N 35°17' E 139°41'0 0.0
2017-Oct-17 20:00N 35°17' E 139°41'0 0.0
2017-Oct-17 19:30N 35°17' E 139°41'0 0.0
2017-Oct-17 19:00N 35°17' E 139°41'0 0.0
2017-Oct-17 18:30N 35°17' E 139°41'0 0.0
2017-Oct-17 18:00N 35°17' E 139°41'0 0.0
2017-Oct-17 17:30N 35°17' E 139°41'0 0.0
2017-Oct-17 17:00N 35°17' E 139°41'0 0.0
2017-Oct-17 16:30N 35°17' E 139°41'0 0.0
2017-Oct-17 16:00N 35°17' E 139°41'0 0.0
2017-Oct-17 15:30N 35°17' E 139°41'0 0.0
2017-Oct-17 15:00N 35°17' E 139°41'0 0.0
2017-Oct-17 14:30N 35°17' E 139°41'0 0.0
2017-Oct-17 14:00N 35°17' E 139°41'0 0.0
2017-Oct-17 13:30N 35°17' E 139°41'0 0.0
2017-Oct-17 13:00N 35°17' E 139°41'0 0.0
2017-Oct-17 12:30N 35°17' E 139°41'0 0.0
2017-Oct-17 12:00N 35°17' E 139°41'0 0.0
2017-Oct-17 11:30N 35°17' E 139°41'0 0.0
2017-Oct-17 11:00N 35°17' E 139°41'0 0.0
2017-Oct-17 10:30N 35°17' E 139°41'3 6.0
2017-Oct-17 10:00N 35°17' E 139°44'4 8.0
2017-Oct-17 09:30N 35°13' E 139°46'611.5
2017-Oct-17 09:00N 35°18' E 139°44'611.6
2017-Oct-17 08:31N 35°24' E 139°43'2 4.0
2017-Oct-17 08:01N 35°26' E 139°42'0 0.3
2017-Oct-17 07:30N 35°26' E 139°42'0 0.0
2017-Oct-17 07:01N 35°26' E 139°42'0 0.0
2017-Oct-17 06:30N 35°26' E 139°42'0 0.0
2017-Oct-17 06:00N 35°26' E 139°42'0 0.0
2017-Oct-17 05:30N 35°26' E 139°42'0 0.0
2017-Oct-17 05:00N 35°26' E 139°42'0 0.0
2017-Oct-17 04:30N 35°26' E 139°42'0 0.0
2017-Oct-17 04:01N 35°26' E 139°42'0 0.0
2017-Oct-17 03:31N 35°26' E 139°42'0 0.0
2017-Oct-17 03:01N 35°26' E 139°42'2 4.2
2017-Oct-17 02:31N 35°28' E 139°43'0 0.2
2017-Oct-17 02:01N 35°28' E 139°43'0 0.3
2017-Oct-17 01:31N 35°27' E 139°43'0 0.1
2017-Oct-17 01:01N 35°27' E 139°43'0 0.1
2017-Oct-17 00:31N 35°27' E 139°43'0 0.3
2017-Oct-17 00:00N 35°28' E 139°43'3 6.0
2017-Oct-16 23:30N 35°25' E 139°45'5 9.4
2017-Oct-16 23:01N 35°21' E 139°45'510.9
2017-Oct-16 22:30N 35°16' E 139°47'5 9.1
2017-Oct-16 22:00N 35°11' E 139°47'0 0.3
2017-Oct-16 21:30N 35°11' E 139°47'510.8
2017-Oct-16 21:00N 35°16' E 139°45'4 7.3
2017-Oct-16 20:30N 35°17' E 139°41'0 0.0
2017-Oct-16 20:00N 35°17' E 139°41'0 0.0
2017-Oct-16 19:30N 35°17' E 139°41'0 0.0
2017-Oct-16 19:00N 35°17' E 139°41'0 0.0
2017-Oct-16 18:27N 35°17' E 139°41'0 0.0
2017-Oct-16 17:57N 35°17' E 139°41'0 0.0
2017-Oct-16 17:30N 35°17' E 139°41'0 0.0
2017-Oct-16 17:00N 35°17' E 139°41'0 0.0
2017-Oct-16 16:30N 35°17' E 139°41'0 0.0
2017-Oct-16 15:58N 35°17' E 139°41'0 0.0
2017-Oct-16 15:29N 35°17' E 139°41'0 0.0
2017-Oct-16 14:59N 35°17' E 139°41'0 0.0
2017-Oct-16 14:01N 35°17' E 139°41'0 0.0
2017-Oct-16 13:30N 35°17' E 139°41'0 0.0
2017-Oct-16 12:54N 35°17' E 139°41'0 0.0
2017-Oct-16 12:27N 35°17' E 139°41'0 0.0
2017-Oct-16 11:31N 35°17' E 139°41'0 0.0
2017-Oct-16 11:30N 35°17' E 139°41'0 0.0
2017-Oct-16 11:00N 35°17' E 139°41'0 0.0
2017-Oct-16 10:30N 35°17' E 139°41'0 0.0
2017-Oct-16 10:00N 35°17' E 139°41'0 0.0
2017-Oct-16 09:28N 35°17' E 139°41'0 0.0
2017-Oct-16 08:57N 35°17' E 139°41'0 0.0
2017-Oct-16 08:28N 35°17' E 139°41'0 0.0
2017-Oct-16 06:33N 35°17' E 139°41'0 0.0
2017-Oct-16 06:30N 35°17' E 139°41'0 0.0
2017-Oct-16 05:53N 35°17' E 139°41'0 0.0
2017-Oct-16 05:24N 35°17' E 139°41'0 0.0
2017-Oct-16 04:37N 35°17' E 139°41'0 0.0
2017-Oct-16 04:29N 35°17' E 139°41'0 0.0
2017-Oct-16 03:50N 35°17' E 139°41'0 0.0
2017-Oct-16 03:28N 35°17' E 139°41'0 0.0
2017-Oct-16 03:00N 35°17' E 139°41'0 0.0
2017-Oct-16 02:25N 35°17' E 139°41'0 0.0
2017-Oct-16 01:59N 35°17' E 139°41'3 6.5
2017-Oct-16 01:30N 35°20' E 139°42'612.4
2017-Oct-16 01:01N 35°26' E 139°44'3 5.2
2017-Oct-16 00:30N 35°24' E 139°46'611.1
2017-Oct-16 00:00N 35°18' E 139°44'611.2
2017-Oct-15 23:30N 35°13' E 139°47'4 7.2
2017-Oct-15 23:00N 35°10' E 139°47'4 7.2
2017-Oct-15 22:30N 35°13' E 139°45'2 3.4
2017-Oct-15 22:00N 35°13' E 139°43'1 1.8
2017-Oct-15 21:30N 35°13' E 139°44'3 5.5
2017-Oct-15 21:00N 35°15' E 139°46'613.0
2017-Oct-15 20:30N 35°21' E 139°42'612.0
2017-Oct-15 20:00N 35°27' E 139°43'1 1.2
2017-Oct-15 19:30N 35°27' E 139°42'0 0.0
2017-Oct-15 19:01N 35°27' E 139°42'0 0.0
2017-Oct-15 18:31N 35°27' E 139°42'0 0.0
2017-Oct-15 18:00N 35°27' E 139°42'4 7.5
2017-Oct-15 17:31N 35°23' E 139°42'612.6
2017-Oct-15 17:00N 35°17' E 139°44'510.1
2017-Oct-15 16:31N 35°13' E 139°46'713.0
2017-Oct-15 16:00N 35°19' E 139°43'713.4
2017-Oct-15 15:30N 35°25' E 139°43'1 2.1
2017-Oct-15 15:00N 35°26' E 139°42'0 0.0
2017-Oct-15 14:00N 35°26' E 139°42'0 0.0
2017-Oct-15 13:30N 35°26' E 139°42'0 0.0
2017-Oct-15 13:00N 35°26' E 139°42'0 0.0
2017-Oct-15 12:30N 35°26' E 139°42'0 0.0
2017-Oct-15 12:00N 35°26' E 139°42'0 0.0
2017-Oct-15 11:30N 35°26' E 139°42'0 0.0
2017-Oct-15 11:00N 35°26' E 139°42'2 4.9
2017-Oct-15 10:30N 35°24' E 139°42'612.8
2017-Oct-15 10:00N 35°17' E 139°44'510.7
2017-Oct-15 09:30N 35°12' E 139°46'612.0
2017-Oct-15 09:01N 35°18' E 139°44'612.6
2017-Oct-15 08:30N 35°24' E 139°43'3 5.8
2017-Oct-15 08:00N 35°22' E 139°43'5 0.8
2017-Oct-15 01:25N 35°17' E 139°41'0 0.0
2017-Oct-15 00:46N 35°17' E 139°41'0 1.3
2017-Oct-15 00:30N 35°17' E 139°41'0 0.0
2017-Oct-15 00:00N 35°17' E 139°41'0 0.0
2017-Oct-14 23:30N 35°17' E 139°41'0 0.0
2017-Oct-14 23:00N 35°17' E 139°41'0 0.0
2017-Oct-14 22:30N 35°17' E 139°41'0 0.0
2017-Oct-14 22:00N 35°17' E 139°41'0 0.0
2017-Oct-14 21:30N 35°17' E 139°41'0 0.0
2017-Oct-14 21:00N 35°17' E 139°41'0 0.0
2017-Oct-14 20:30N 35°17' E 139°41'0 0.0
2017-Oct-14 20:00N 35°17' E 139°41'0 0.0
2017-Oct-14 19:30N 35°17' E 139°41'0 0.0
2017-Oct-14 19:00N 35°17' E 139°41'0 0.0
2017-Oct-14 18:30N 35°17' E 139°41'0 0.0
2017-Oct-14 18:00N 35°17' E 139°41'0 0.0
2017-Oct-14 17:30N 35°17' E 139°41'0 0.0
2017-Oct-14 17:00N 35°17' E 139°41'0 0.0
2017-Oct-14 16:30N 35°17' E 139°41'0 0.0
2017-Oct-14 16:00N 35°17' E 139°41'0 0.0
2017-Oct-14 15:30N 35°17' E 139°41'0 0.0
2017-Oct-14 15:00N 35°17' E 139°41'0 0.0
2017-Oct-14 14:30N 35°17' E 139°41'0 0.0
2017-Oct-14 14:00N 35°17' E 139°41'0 0.0
2017-Oct-14 13:30N 35°17' E 139°41'0 0.0
2017-Oct-14 13:00N 35°17' E 139°41'0 0.0
2017-Oct-14 12:30N 35°17' E 139°41'0 0.0
2017-Oct-14 12:00N 35°17' E 139°41'0 0.0
2017-Oct-14 11:30N 35°17' E 139°41'0 0.0
2017-Oct-14 11:00N 35°17' E 139°41'0 0.0
2017-Oct-14 10:30N 35°17' E 139°41'0 0.0
2017-Oct-14 10:00N 35°17' E 139°41'0 0.0
2017-Oct-14 09:30N 35°17' E 139°41'0 0.0
2017-Oct-14 09:00N 35°17' E 139°41'0 0.0
2017-Oct-14 08:30N 35°17' E 139°41'0 0.0
2017-Oct-14 08:00N 35°17' E 139°41'0 0.0
2017-Oct-14 07:30N 35°17' E 139°41'0 0.0
2017-Oct-14 07:00N 35°17' E 139°41'0 0.0
2017-Oct-14 06:30N 35°17' E 139°41'0 0.0
2017-Oct-14 06:00N 35°17' E 139°41'0 0.0
2017-Oct-14 05:30N 35°17' E 139°41'0 0.0
2017-Oct-14 05:00N 35°17' E 139°41'0 0.0
2017-Oct-14 04:30N 35°17' E 139°41'0 0.0
2017-Oct-14 04:00N 35°17' E 139°41'0 0.0
2017-Oct-14 03:30N 35°17' E 139°41'0 0.0
2017-Oct-14 03:00N 35°17' E 139°41'0 0.0
2017-Oct-14 02:30N 35°17' E 139°41'0 0.0
2017-Oct-14 02:00N 35°17' E 139°41'0 0.0
2017-Oct-14 01:30N 35°17' E 139°41'0 0.0
2017-Oct-14 01:00N 35°17' E 139°41'0 0.0
2017-Oct-14 00:30N 35°17' E 139°41'2 3.2
2017-Oct-14 00:00N 35°19' E 139°41'1 2.6
2017-Oct-13 23:31N 35°18' E 139°39'0 0.2
2017-Oct-13 23:00N 35°18' E 139°39'1 2.7
2017-Oct-13 22:30N 35°19' E 139°40'0 0.0
2017-Oct-13 22:00N 35°19' E 139°40'0 0.0
2017-Oct-13 21:30N 35°19' E 139°40'3 5.1
2017-Oct-13 21:01N 35°21' E 139°42'4 8.7
2017-Oct-13 20:30N 35°24' E 139°46'612.4
2017-Oct-13 20:01N 35°18' E 139°45'612.3
2017-Oct-13 19:30N 35°12' E 139°47'2 3.9
2017-Oct-13 19:00N 35°10' E 139°46'4 7.5
2017-Oct-13 18:30N 35°13' E 139°43'0 0.0
2017-Oct-13 18:00N 35°13' E 139°43'0 0.0
2017-Oct-13 17:30N 35°13' E 139°43'0 0.0
2017-Oct-13 17:00N 35°13' E 139°43'0 0.0
2017-Oct-13 16:30N 35°13' E 139°43'0 0.0
2017-Oct-13 16:00N 35°13' E 139°43'0 0.0
2017-Oct-13 15:31N 35°13' E 139°43'0 0.0
2017-Oct-13 15:00N 35°13' E 139°43'0 0.0
2017-Oct-13 14:31N 35°13' E 139°43'0 0.0
2017-Oct-13 14:00N 35°13' E 139°43'0 0.0
2017-Oct-13 13:30N 35°13' E 139°43'0 0.0
2017-Oct-13 13:00N 35°13' E 139°43'0 0.0
2017-Oct-13 12:31N 35°13' E 139°43'0 0.0
2017-Oct-13 12:00N 35°13' E 139°43'3 5.4
2017-Oct-13 11:30N 35°12' E 139°46'611.9
2017-Oct-13 11:00N 35°18' E 139°44'611.8
2017-Oct-13 10:30N 35°24' E 139°43'3 5.4
2017-Oct-13 10:01N 35°21' E 139°43'3 6.2
2017-Oct-13 09:31N 35°19' E 139°40'0 0.0
2017-Oct-13 09:00N 35°19' E 139°40'0 0.0
2017-Oct-13 08:30N 35°19' E 139°40'0 0.0
2017-Oct-13 08:00N 35°19' E 139°40'0 0.0
2017-Oct-13 07:30N 35°19' E 139°40'0 0.0
2017-Oct-13 07:00N 35°19' E 139°40'0 0.0
2017-Oct-13 06:30N 35°19' E 139°40'0 0.0
2017-Oct-13 06:00N 35°19' E 139°40'0 0.0
2017-Oct-13 05:31N 35°19' E 139°40'1 1.7
2017-Oct-13 05:00N 35°19' E 139°39'0 0.0
2017-Oct-13 04:30N 35°19' E 139°39'3 5.0
2017-Oct-13 04:00N 35°17' E 139°41'1 1.2
2017-Oct-13 03:30N 35°17' E 139°41'0 0.0
2017-Oct-13 02:57N 35°17' E 139°41'0 0.0
2017-Oct-13 02:31N 35°17' E 139°41'0 0.0
2017-Oct-13 01:57N 35°17' E 139°41'0 0.0
2017-Oct-13 01:30N 35°17' E 139°41'0 0.0
2017-Oct-13 01:00N 35°17' E 139°41'0 0.0
2017-Oct-13 00:30N 35°17' E 139°41'0 0.0
2017-Oct-13 00:00N 35°17' E 139°41'0 0.0
2017-Oct-12 23:30N 35°17' E 139°41'0 0.0
2017-Oct-12 23:00N 35°17' E 139°41'0 0.0
2017-Oct-12 22:30N 35°17' E 139°41'0 0.0
2017-Oct-12 22:00N 35°17' E 139°41'0 0.0
2017-Oct-12 21:31N 35°17' E 139°41'0 0.0
2017-Oct-12 21:00N 35°17' E 139°41'0 0.0
2017-Oct-12 20:30N 35°17' E 139°41'0 0.0
2017-Oct-12 20:00N 35°17' E 139°41'0 0.0
2017-Oct-12 19:30N 35°17' E 139°41'0 0.0
2017-Oct-12 19:00N 35°17' E 139°41'0 0.0
2017-Oct-12 18:30N 35°17' E 139°41'0 0.0
2017-Oct-12 18:01N 35°17' E 139°41'0 0.0
2017-Oct-12 17:29N 35°17' E 139°41'0 0.0
2017-Oct-12 16:51N 35°17' E 139°41'0 0.0
2017-Oct-12 16:01N 35°17' E 139°41'0 0.0
2017-Oct-12 16:00N 35°17' E 139°41'0 0.0
2017-Oct-12 15:31N 35°17' E 139°41'0 0.0
2017-Oct-12 14:37N 35°17' E 139°41'0 0.0
2017-Oct-12 14:25N 35°17' E 139°41'0 0.0
2017-Oct-12 13:54N 35°17' E 139°41'0 0.0
2017-Oct-12 12:55N 35°17' E 139°41'0 0.0
2017-Oct-12 12:28N 35°17' E 139°41'0 0.0
2017-Oct-12 11:47N 35°17' E 139°41'0 0.0
2017-Oct-12 10:54N 35°17' E 139°41'0 0.0
2017-Oct-12 10:14N 35°17' E 139°41'0 0.0
2017-Oct-12 09:58N 35°17' E 139°41'0 0.0
2017-Oct-12 09:30N 35°17' E 139°41'0 0.0
2017-Oct-12 09:00N 35°17' E 139°41'0 0.0
2017-Oct-12 08:14N 35°17' E 139°41'0 0.0
2017-Oct-12 07:48N 35°17' E 139°41'0 0.0
2017-Oct-12 06:41N 35°17' E 139°41'0 0.0
2017-Oct-12 06:27N 35°17' E 139°41'0 0.0
2017-Oct-12 05:49N 35°17' E 139°41'0 0.0
2017-Oct-12 04:50N 35°17' E 139°41'0 0.0
2017-Oct-12 04:23N 35°17' E 139°41'0 0.0
2017-Oct-12 03:53N 35°17' E 139°41'0 0.0
2017-Oct-12 03:29N 35°17' E 139°41'0 0.0
2017-Oct-12 02:50N 35°17' E 139°41'0 0.0
2017-Oct-12 02:23N 35°17' E 139°41'0 0.0
2017-Oct-12 01:50N 35°17' E 139°41'1 3.1
2017-Oct-12 01:30N 35°18' E 139°41'612.1
2017-Oct-12 01:01N 35°23' E 139°46'4 6.0
2017-Oct-12 00:24N 35°21' E 139°49'0 0.1
2017-Oct-11 23:56N 35°21' E 139°49'1 0.5
2017-Oct-11 21:45N 35°22' E 139°49'1 1.0
2017-Oct-11 21:13N 35°22' E 139°49'5 6.4
2017-Oct-11 20:24N 35°18' E 139°45'511.9
2017-Oct-11 19:58N 35°13' E 139°47'3 7.2
2017-Oct-11 19:30N 35°10' E 139°47'3 5.4
2017-Oct-11 19:00N 35°12' E 139°45'2 4.3
2017-Oct-11 18:30N 35°13' E 139°43'0 0.0
2017-Oct-11 17:59N 35°13' E 139°43'0 0.0
2017-Oct-11 17:30N 35°13' E 139°43'0 0.0
2017-Oct-11 17:00N 35°13' E 139°43'5 0.3
2017-Oct-10 23:40N 35°18' E 139°39'1 5.2
2017-Oct-10 23:30N 35°18' E 139°40'0 0.6
2017-Oct-10 23:00N 35°19' E 139°40'1 1.7
2017-Oct-10 22:09N 35°17' E 139°39'0 1.6
2017-Oct-10 21:56N 35°18' E 139°39'  
Track history (hours):
 
Tides and Currents Weather Stations Pressure Air Temp Water Temp Dewpoint Dewpoint Depression Visibility Wind Speed Wind Dir Waves Ship Positions

Hayama Maru

Last reported at 2017-Oct-20 21:00 UTC. Time now 2017-Oct-20 21:17 UTC.
Position N 35°17' E 139°41'.

Length 40 m; draft 3 m.

Type: Tug. MMSI: 431101161.

Date/timePositionNaut miles runAvg speedWind from/ knotsBaromVisibWave heightAir tempDewpointWater temp
2017-Oct-20 21:00N 35°17' E 139°41'0 0.0
2017-Oct-20 20:30N 35°17' E 139°41'0 0.0
2017-Oct-20 20:00N 35°17' E 139°41'0 0.0
2017-Oct-20 19:30N 35°17' E 139°41'0 0.1
2017-Oct-20 19:00N 35°17' E 139°41'0 0.1
2017-Oct-20 18:30N 35°17' E 139°41'0 0.0
2017-Oct-20 18:00N 35°17' E 139°41'0 0.1
2017-Oct-20 17:30N 35°17' E 139°41'0 0.1
2017-Oct-20 17:00N 35°17' E 139°41'0 0.0
2017-Oct-20 16:30N 35°17' E 139°41'0 0.0
2017-Oct-20 16:00N 35°17' E 139°41'0 0.0
2017-Oct-20 15:30N 35°17' E 139°41'0 0.1
2017-Oct-20 15:00N 35°17' E 139°41'0 0.1
2017-Oct-20 14:30N 35°17' E 139°41'0 0.0
2017-Oct-20 13:30N 35°17' E 139°41'0 0.0
2017-Oct-20 13:00N 35°17' E 139°41'0 0.0
2017-Oct-20 12:30N 35°17' E 139°41'2 3.3
2017-Oct-20 12:00N 35°18' E 139°42'510.8
2017-Oct-20 11:30N 35°13' E 139°45'4 7.5
2017-Oct-20 11:00N 35°17' E 139°45'612.3
2017-Oct-20 10:30N 35°22' E 139°42'1 1.6
2017-Oct-20 10:00N 35°22' E 139°43'5 2.1
2017-Oct-20 07:33N 35°17' E 139°41'0 0.0
2017-Oct-20 03:22N 35°17' E 139°41'3 9.6
2017-Oct-20 03:00N 35°16' E 139°45'3 5.9
2017-Oct-20 02:30N 35°14' E 139°46'612.0
2017-Oct-20 02:01N 35°19' E 139°43'612.4
2017-Oct-20 01:30N 35°25' E 139°43'3 5.2
2017-Oct-20 01:00N 35°28' E 139°44'0 0.3
2017-Oct-20 00:30N 35°28' E 139°44'3 6.7
2017-Oct-20 00:00N 35°25' E 139°43'611.5
2017-Oct-19 23:30N 35°19' E 139°42'2 4.5
2017-Oct-19 23:00N 35°17' E 139°41'0 0.1
2017-Oct-19 22:30N 35°17' E 139°41'0 0.0
2017-Oct-19 22:00N 35°17' E 139°41'0 0.0
2017-Oct-19 21:30N 35°17' E 139°41'0 0.0
2017-Oct-19 21:00N 35°17' E 139°41'0 0.0
2017-Oct-19 20:30N 35°17' E 139°41'0 0.0
2017-Oct-19 20:00N 35°17' E 139°41'0 0.0
2017-Oct-19 19:30N 35°17' E 139°41'0 0.0
2017-Oct-19 19:00N 35°17' E 139°41'0 0.0
2017-Oct-19 18:30N 35°17' E 139°41'0 0.0
2017-Oct-19 18:00N 35°17' E 139°41'0 0.0
2017-Oct-19 17:30N 35°17' E 139°41'0 0.0
2017-Oct-19 17:00N 35°17' E 139°41'0 0.0
2017-Oct-19 16:30N 35°17' E 139°41'0 0.0
2017-Oct-19 16:00N 35°17' E 139°41'0 0.0
2017-Oct-19 15:30N 35°17' E 139°41'0 0.0
2017-Oct-19 15:00N 35°17' E 139°41'0 0.0
2017-Oct-19 14:30N 35°17' E 139°41'0 0.0
2017-Oct-19 14:00N 35°17' E 139°41'0 0.0
2017-Oct-19 13:30N 35°17' E 139°41'0 0.0
2017-Oct-19 13:00N 35°17' E 139°41'0 0.0
2017-Oct-19 12:30N 35°17' E 139°41'0 0.0
2017-Oct-19 12:00N 35°17' E 139°41'0 0.0
2017-Oct-19 11:30N 35°17' E 139°41'0 0.0
2017-Oct-19 11:00N 35°17' E 139°41'0 0.0
2017-Oct-19 10:30N 35°17' E 139°41'0 0.0
2017-Oct-19 10:00N 35°17' E 139°41'0 0.0
2017-Oct-19 09:30N 35°17' E 139°41'0 0.0
2017-Oct-19 09:00N 35°17' E 139°41'0 0.0
2017-Oct-19 08:30N 35°17' E 139°41'0 0.0
2017-Oct-19 08:00N 35°17' E 139°41'0 0.0
2017-Oct-19 07:30N 35°17' E 139°41'0 0.1
2017-Oct-19 07:00N 35°17' E 139°41'0 0.0
2017-Oct-19 06:30N 35°17' E 139°41'0 0.0
2017-Oct-19 06:00N 35°17' E 139°41'0 0.0
2017-Oct-19 05:30N 35°17' E 139°41'2 3.6
2017-Oct-19 05:01N 35°17' E 139°43'5 9.9
2017-Oct-19 04:30N 35°13' E 139°46'4 7.9
2017-Oct-19 04:00N 35°17' E 139°45'612.1
2017-Oct-19 03:30N 35°22' E 139°41'2 4.6
2017-Oct-19 03:00N 35°24' E 139°39'0 0.7
2017-Oct-19 02:30N 35°24' E 139°39'1 1.1
2017-Oct-19 02:00N 35°23' E 139°40'0 0.1
2017-Oct-19 01:30N 35°23' E 139°40'0 0.0
2017-Oct-19 01:00N 35°23' E 139°40'0 0.0
2017-Oct-19 00:30N 35°23' E 139°40'5 9.0
2017-Oct-19 00:00N 35°25' E 139°44'4 7.8
2017-Oct-18 23:31N 35°22' E 139°45'611.2
2017-Oct-18 23:00N 35°16' E 139°46'611.1
2017-Oct-18 22:30N 35°11' E 139°47'1 1.5
2017-Oct-18 22:00N 35°11' E 139°46'611.4
2017-Oct-18 21:30N 35°17' E 139°44'3 5.7
2017-Oct-18 21:00N 35°17' E 139°41'0 0.0
2017-Oct-18 20:30N 35°17' E 139°41'0 0.0
2017-Oct-18 20:00N 35°17' E 139°41'0 0.0
2017-Oct-18 19:30N 35°17' E 139°41'0 0.0
2017-Oct-18 19:01N 35°17' E 139°41'0 0.0
2017-Oct-18 18:29N 35°17' E 139°41'0 0.0
2017-Oct-18 18:01N 35°17' E 139°41'0 0.0
2017-Oct-18 17:30N 35°17' E 139°41'0 0.0
2017-Oct-18 17:00N 35°17' E 139°41'0 0.0
2017-Oct-18 16:30N 35°17' E 139°41'0 0.0
2017-Oct-18 16:00N 35°17' E 139°41'0 0.0
2017-Oct-18 15:31N 35°17' E 139°41'0 0.0
2017-Oct-18 15:00N 35°17' E 139°41'0 0.0
2017-Oct-18 14:00N 35°17' E 139°41'0 0.0
2017-Oct-18 13:30N 35°17' E 139°41'0 0.0
2017-Oct-18 13:00N 35°17' E 139°41'0 0.0
2017-Oct-18 12:30N 35°17' E 139°41'0 0.0
2017-Oct-18 12:01N 35°17' E 139°41'0 0.0
2017-Oct-18 11:30N 35°17' E 139°41'0 0.0
2017-Oct-18 11:00N 35°17' E 139°41'0 0.0
2017-Oct-18 10:30N 35°17' E 139°41'0 0.0
2017-Oct-18 10:00N 35°17' E 139°41'0 0.0
2017-Oct-18 09:30N 35°17' E 139°41'0 0.0
2017-Oct-18 09:01N 35°17' E 139°41'0 0.0
2017-Oct-18 08:30N 35°17' E 139°41'0 0.0
2017-Oct-18 08:01N 35°17' E 139°41'0 0.0
2017-Oct-18 07:30N 35°17' E 139°41'0 0.0
2017-Oct-18 07:00N 35°17' E 139°41'0 0.0
2017-Oct-18 06:30N 35°17' E 139°41'0 0.0
2017-Oct-18 06:00N 35°17' E 139°41'0 0.0
2017-Oct-18 05:30N 35°17' E 139°41'0 0.0
2017-Oct-18 05:00N 35°17' E 139°41'0 0.0
2017-Oct-18 04:31N 35°17' E 139°41'0 0.0
2017-Oct-18 04:00N 35°17' E 139°41'0 0.0
2017-Oct-18 03:30N 35°17' E 139°41'0 0.0
2017-Oct-18 03:00N 35°17' E 139°41'0 0.0
2017-Oct-18 02:29N 35°17' E 139°41'0 0.0
2017-Oct-18 01:59N 35°17' E 139°41'4 7.9
2017-Oct-18 01:28N 35°21' E 139°42'2 3.6
2017-Oct-18 01:01N 35°20' E 139°43'612.8
2017-Oct-18 00:30N 35°14' E 139°47'5 9.2
2017-Oct-18 00:01N 35°10' E 139°46'4 8.7
2017-Oct-17 23:30N 35°14' E 139°46'510.0
2017-Oct-17 23:00N 35°17' E 139°41'0 0.6
2017-Oct-17 22:30N 35°17' E 139°41'0 0.0
2017-Oct-17 22:00N 35°17' E 139°41'0 0.0
2017-Oct-17 21:30N 35°17' E 139°41'0 0.0
2017-Oct-17 21:00N 35°17' E 139°41'0 0.0
2017-Oct-17 20:30N 35°17' E 139°41'0 0.0
2017-Oct-17 20:00N 35°17' E 139°41'0 0.0
2017-Oct-17 19:30N 35°17' E 139°41'0 0.0
2017-Oct-17 19:00N 35°17' E 139°41'0 0.0
2017-Oct-17 18:30N 35°17' E 139°41'0 0.0
2017-Oct-17 18:00N 35°17' E 139°41'0 0.0
2017-Oct-17 17:30N 35°17' E 139°41'0 0.0
2017-Oct-17 17:00N 35°17' E 139°41'0 0.0
2017-Oct-17 16:30N 35°17' E 139°41'0 0.0
2017-Oct-17 16:00N 35°17' E 139°41'0 0.0
2017-Oct-17 15:30N 35°17' E 139°41'0 0.0
2017-Oct-17 15:00N 35°17' E 139°41'0 0.0
2017-Oct-17 14:30N 35°17' E 139°41'0 0.0
2017-Oct-17 14:00N 35°17' E 139°41'0 0.0
2017-Oct-17 13:30N 35°17' E 139°41'0 0.0
2017-Oct-17 13:00N 35°17' E 139°41'0 0.0
2017-Oct-17 12:30N 35°17' E 139°41'0 0.0
2017-Oct-17 12:00N 35°17' E 139°41'0 0.0
2017-Oct-17 11:30N 35°17' E 139°41'0 0.0
2017-Oct-17 11:00N 35°17' E 139°41'0 0.0
2017-Oct-17 10:30N 35°17' E 139°41'3 6.0
2017-Oct-17 10:00N 35°17' E 139°44'4 8.0
2017-Oct-17 09:30N 35°13' E 139°46'611.5
2017-Oct-17 09:00N 35°18' E 139°44'611.6
2017-Oct-17 08:31N 35°24' E 139°43'2 4.0
2017-Oct-17 08:01N 35°26' E 139°42'0 0.3
2017-Oct-17 07:30N 35°26' E 139°42'0 0.0
2017-Oct-17 07:01N 35°26' E 139°42'0 0.0
2017-Oct-17 06:30N 35°26' E 139°42'0 0.0
2017-Oct-17 06:00N 35°26' E 139°42'0 0.0
2017-Oct-17 05:30N 35°26' E 139°42'0 0.0
2017-Oct-17 05:00N 35°26' E 139°42'0 0.0
2017-Oct-17 04:30N 35°26' E 139°42'0 0.0
2017-Oct-17 04:01N 35°26' E 139°42'0 0.0
2017-Oct-17 03:31N 35°26' E 139°42'0 0.0
2017-Oct-17 03:01N 35°26' E 139°42'2 4.2
2017-Oct-17 02:31N 35°28' E 139°43'0 0.2
2017-Oct-17 02:01N 35°28' E 139°43'0 0.3
2017-Oct-17 01:31N 35°27' E 139°43'0 0.1
2017-Oct-17 01:01N 35°27' E 139°43'0 0.1
2017-Oct-17 00:31N 35°27' E 139°43'0 0.3
2017-Oct-17 00:00N 35°28' E 139°43'3 6.0
2017-Oct-16 23:30N 35°25' E 139°45'5 9.4
2017-Oct-16 23:01N 35°21' E 139°45'510.9
2017-Oct-16 22:30N 35°16' E 139°47'5 9.1
2017-Oct-16 22:00N 35°11' E 139°47'0 0.3
2017-Oct-16 21:30N 35°11' E 139°47'510.8
2017-Oct-16 21:00N 35°16' E 139°45'4 7.3
2017-Oct-16 20:30N 35°17' E 139°41'0 0.0
2017-Oct-16 20:00N 35°17' E 139°41'0 0.0
2017-Oct-16 19:30N 35°17' E 139°41'0 0.0
2017-Oct-16 19:00N 35°17' E 139°41'0 0.0
2017-Oct-16 18:27N 35°17' E 139°41'0 0.0
2017-Oct-16 17:57N 35°17' E 139°41'0 0.0
2017-Oct-16 17:30N 35°17' E 139°41'0 0.0
2017-Oct-16 17:00N 35°17' E 139°41'0 0.0
2017-Oct-16 16:30N 35°17' E 139°41'0 0.0
2017-Oct-16 15:58N 35°17' E 139°41'0 0.0
2017-Oct-16 15:29N 35°17' E 139°41'0 0.0
2017-Oct-16 14:59N 35°17' E 139°41'0 0.0
2017-Oct-16 14:01N 35°17' E 139°41'0 0.0
2017-Oct-16 13:30N 35°17' E 139°41'0 0.0
2017-Oct-16 12:54N 35°17' E 139°41'0 0.0
2017-Oct-16 12:27N 35°17' E 139°41'0 0.0
2017-Oct-16 11:31N 35°17' E 139°41'0 0.0
2017-Oct-16 11:30N 35°17' E 139°41'0 0.0
2017-Oct-16 11:00N 35°17' E 139°41'0 0.0
2017-Oct-16 10:30N 35°17' E 139°41'0 0.0
2017-Oct-16 10:00N 35°17' E 139°41'0 0.0
2017-Oct-16 09:28N 35°17' E 139°41'0 0.0
2017-Oct-16 08:57N 35°17' E 139°41'0 0.0
2017-Oct-16 08:28N 35°17' E 139°41'0 0.0
2017-Oct-16 06:33N 35°17' E 139°41'0 0.0
2017-Oct-16 06:30N 35°17' E 139°41'0 0.0
2017-Oct-16 05:53N 35°17' E 139°41'0 0.0
2017-Oct-16 05:24N 35°17' E 139°41'0 0.0
2017-Oct-16 04:37N 35°17' E 139°41'0 0.0
2017-Oct-16 04:29N 35°17' E 139°41'0 0.0
2017-Oct-16 03:50N 35°17' E 139°41'0 0.0
2017-Oct-16 03:28N 35°17' E 139°41'0 0.0
2017-Oct-16 03:00N 35°17' E 139°41'0 0.0
2017-Oct-16 02:25N 35°17' E 139°41'0 0.0
2017-Oct-16 01:59N 35°17' E 139°41'3 6.5
2017-Oct-16 01:30N 35°20' E 139°42'612.4
2017-Oct-16 01:01N 35°26' E 139°44'3 5.2
2017-Oct-16 00:30N 35°24' E 139°46'611.1
2017-Oct-16 00:00N 35°18' E 139°44'611.2
2017-Oct-15 23:30N 35°13' E 139°47'4 7.2
2017-Oct-15 23:00N 35°10' E 139°47'4 7.2
2017-Oct-15 22:30N 35°13' E 139°45'2 3.4
2017-Oct-15 22:00N 35°13' E 139°43'1 1.8
2017-Oct-15 21:30N 35°13' E 139°44'3 5.5
2017-Oct-15 21:00N 35°15' E 139°46'613.0
2017-Oct-15 20:30N 35°21' E 139°42'612.0
2017-Oct-15 20:00N 35°27' E 139°43'1 1.2
2017-Oct-15 19:30N 35°27' E 139°42'0 0.0
2017-Oct-15 19:01N 35°27' E 139°42'0 0.0
2017-Oct-15 18:31N 35°27' E 139°42'0 0.0
2017-Oct-15 18:00N 35°27' E 139°42'4 7.5
2017-Oct-15 17:31N 35°23' E 139°42'612.6
2017-Oct-15 17:00N 35°17' E 139°44'510.1
2017-Oct-15 16:31N 35°13' E 139°46'713.0
2017-Oct-15 16:00N 35°19' E 139°43'713.4
2017-Oct-15 15:30N 35°25' E 139°43'1 2.1
2017-Oct-15 15:00N 35°26' E 139°42'0 0.0
2017-Oct-15 14:00N 35°26' E 139°42'0 0.0
2017-Oct-15 13:30N 35°26' E 139°42'0 0.0
2017-Oct-15 13:00N 35°26' E 139°42'0 0.0
2017-Oct-15 12:30N 35°26' E 139°42'0 0.0
2017-Oct-15 12:00N 35°26' E 139°42'0 0.0
2017-Oct-15 11:30N 35°26' E 139°42'0 0.0
2017-Oct-15 11:00N 35°26' E 139°42'2 4.9
2017-Oct-15 10:30N 35°24' E 139°42'612.8
2017-Oct-15 10:00N 35°17' E 139°44'510.7
2017-Oct-15 09:30N 35°12' E 139°46'612.0
2017-Oct-15 09:01N 35°18' E 139°44'612.6
2017-Oct-15 08:30N 35°24' E 139°43'3 5.8
2017-Oct-15 08:00N 35°22' E 139°43'5 0.8
2017-Oct-15 01:25N 35°17' E 139°41'0 0.0
2017-Oct-15 00:46N 35°17' E 139°41'0 1.3
2017-Oct-15 00:30N 35°17' E 139°41'0 0.0
2017-Oct-15 00:00N 35°17' E 139°41'0 0.0
2017-Oct-14 23:30N 35°17' E 139°41'0 0.0
2017-Oct-14 23:00N 35°17' E 139°41'0 0.0
2017-Oct-14 22:30N 35°17' E 139°41'0 0.0
2017-Oct-14 22:00N 35°17' E 139°41'0 0.0
2017-Oct-14 21:30N 35°17' E 139°41'0 0.0
2017-Oct-14 21:00N 35°17' E 139°41'0 0.0
2017-Oct-14 20:30N 35°17' E 139°41'0 0.0
2017-Oct-14 20:00N 35°17' E 139°41'0 0.0
2017-Oct-14 19:30N 35°17' E 139°41'0 0.0
2017-Oct-14 19:00N 35°17' E 139°41'0 0.0
2017-Oct-14 18:30N 35°17' E 139°41'0 0.0
2017-Oct-14 18:00N 35°17' E 139°41'0 0.0
2017-Oct-14 17:30N 35°17' E 139°41'0 0.0
2017-Oct-14 17:00N 35°17' E 139°41'0 0.0
2017-Oct-14 16:30N 35°17' E 139°41'0 0.0
2017-Oct-14 16:00N 35°17' E 139°41'0 0.0
2017-Oct-14 15:30N 35°17' E 139°41'0 0.0
2017-Oct-14 15:00N 35°17' E 139°41'0 0.0
2017-Oct-14 14:30N 35°17' E 139°41'0 0.0
2017-Oct-14 14:00N 35°17' E 139°41'0 0.0
2017-Oct-14 13:30N 35°17' E 139°41'0 0.0
2017-Oct-14 13:00N 35°17' E 139°41'0 0.0
2017-Oct-14 12:30N 35°17' E 139°41'0 0.0
2017-Oct-14 12:00N 35°17' E 139°41'0 0.0
2017-Oct-14 11:30N 35°17' E 139°41'0 0.0
2017-Oct-14 11:00N 35°17' E 139°41'0 0.0
2017-Oct-14 10:30N 35°17' E 139°41'0 0.0
2017-Oct-14 10:00N 35°17' E 139°41'0 0.0
2017-Oct-14 09:30N 35°17' E 139°41'0 0.0
2017-Oct-14 09:00N 35°17' E 139°41'0 0.0
2017-Oct-14 08:30N 35°17' E 139°41'0 0.0
2017-Oct-14 08:00N 35°17' E 139°41'0 0.0
2017-Oct-14 07:30N 35°17' E 139°41'0 0.0
2017-Oct-14 07:00N 35°17' E 139°41'0 0.0
2017-Oct-14 06:30N 35°17' E 139°41'0 0.0
2017-Oct-14 06:00N 35°17' E 139°41'0 0.0
2017-Oct-14 05:30N 35°17' E 139°41'0 0.0
2017-Oct-14 05:00N 35°17' E 139°41'0 0.0
2017-Oct-14 04:30N 35°17' E 139°41'0 0.0
2017-Oct-14 04:00N 35°17' E 139°41'0 0.0
2017-Oct-14 03:30N 35°17' E 139°41'0 0.0
2017-Oct-14 03:00N 35°17' E 139°41'0 0.0
2017-Oct-14 02:30N 35°17' E 139°41'0 0.0
2017-Oct-14 02:00N 35°17' E 139°41'0 0.0
2017-Oct-14 01:30N 35°17' E 139°41'0 0.0
2017-Oct-14 01:00N 35°17' E 139°41'0 0.0
2017-Oct-14 00:30N 35°17' E 139°41'2 3.2
2017-Oct-14 00:00N 35°19' E 139°41'1 2.6
2017-Oct-13 23:31N 35°18' E 139°39'0 0.2
2017-Oct-13 23:00N 35°18' E 139°39'1 2.7
2017-Oct-13 22:30N 35°19' E 139°40'0 0.0
2017-Oct-13 22:00N 35°19' E 139°40'0 0.0
2017-Oct-13 21:30N 35°19' E 139°40'3 5.1
2017-Oct-13 21:01N 35°21' E 139°42'4 8.7
2017-Oct-13 20:30N 35°24' E 139°46'612.4
2017-Oct-13 20:01N 35°18' E 139°45'612.3
2017-Oct-13 19:30N 35°12' E 139°47'2 3.9
2017-Oct-13 19:00N 35°10' E 139°46'4 7.5
2017-Oct-13 18:30N 35°13' E 139°43'0 0.0
2017-Oct-13 18:00N 35°13' E 139°43'0 0.0
2017-Oct-13 17:30N 35°13' E 139°43'0 0.0
2017-Oct-13 17:00N 35°13' E 139°43'0 0.0
2017-Oct-13 16:30N 35°13' E 139°43'0 0.0
2017-Oct-13 16:00N 35°13' E 139°43'0 0.0
2017-Oct-13 15:31N 35°13' E 139°43'0 0.0
2017-Oct-13 15:00N 35°13' E 139°43'0 0.0
2017-Oct-13 14:31N 35°13' E 139°43'0 0.0
2017-Oct-13 14:00N 35°13' E 139°43'0 0.0
2017-Oct-13 13:30N 35°13' E 139°43'0 0.0
2017-Oct-13 13:00N 35°13' E 139°43'0 0.0
2017-Oct-13 12:31N 35°13' E 139°43'0 0.0
2017-Oct-13 12:00N 35°13' E 139°43'3 5.4
2017-Oct-13 11:30N 35°12' E 139°46'611.9
2017-Oct-13 11:00N 35°18' E 139°44'611.8
2017-Oct-13 10:30N 35°24' E 139°43'3 5.4
2017-Oct-13 10:01N 35°21' E 139°43'3 6.2
2017-Oct-13 09:31N 35°19' E 139°40'0 0.0
2017-Oct-13 09:00N 35°19' E 139°40'0 0.0
2017-Oct-13 08:30N 35°19' E 139°40'0 0.0
2017-Oct-13 08:00N 35°19' E 139°40'0 0.0
2017-Oct-13 07:30N 35°19' E 139°40'0 0.0
2017-Oct-13 07:00N 35°19' E 139°40'0 0.0
2017-Oct-13 06:30N 35°19' E 139°40'0 0.0
2017-Oct-13 06:00N 35°19' E 139°40'0 0.0
2017-Oct-13 05:31N 35°19' E 139°40'1 1.7
2017-Oct-13 05:00N 35°19' E 139°39'0 0.0
2017-Oct-13 04:30N 35°19' E 139°39'3 5.0
2017-Oct-13 04:00N 35°17' E 139°41'1 1.2
2017-Oct-13 03:30N 35°17' E 139°41'0 0.0
2017-Oct-13 02:57N 35°17' E 139°41'0 0.0
2017-Oct-13 02:31N 35°17' E 139°41'0 0.0
2017-Oct-13 01:57N 35°17' E 139°41'0 0.0
2017-Oct-13 01:30N 35°17' E 139°41'0 0.0
2017-Oct-13 01:00N 35°17' E 139°41'0 0.0
2017-Oct-13 00:30N 35°17' E 139°41'0 0.0
2017-Oct-13 00:00N 35°17' E 139°41'0 0.0
2017-Oct-12 23:30N 35°17' E 139°41'0 0.0
2017-Oct-12 23:00N 35°17' E 139°41'0 0.0
2017-Oct-12 22:30N 35°17' E 139°41'0 0.0
2017-Oct-12 22:00N 35°17' E 139°41'0 0.0
2017-Oct-12 21:31N 35°17' E 139°41'0 0.0
2017-Oct-12 21:00N 35°17' E 139°41'0 0.0
2017-Oct-12 20:30N 35°17' E 139°41'0 0.0
2017-Oct-12 20:00N 35°17' E 139°41'0 0.0
2017-Oct-12 19:30N 35°17' E 139°41'0 0.0
2017-Oct-12 19:00N 35°17' E 139°41'0 0.0
2017-Oct-12 18:30N 35°17' E 139°41'0 0.0
2017-Oct-12 18:01N 35°17' E 139°41'0 0.0
2017-Oct-12 17:29N 35°17' E 139°41'0 0.0
2017-Oct-12 16:51N 35°17' E 139°41'0 0.0
2017-Oct-12 16:01N 35°17' E 139°41'0 0.0
2017-Oct-12 16:00N 35°17' E 139°41'0 0.0
2017-Oct-12 15:31N 35°17' E 139°41'0 0.0
2017-Oct-12 14:37N 35°17' E 139°41'0 0.0
2017-Oct-12 14:25N 35°17' E 139°41'0 0.0
2017-Oct-12 13:54N 35°17' E 139°41'0 0.0
2017-Oct-12 12:55N 35°17' E 139°41'0 0.0
2017-Oct-12 12:28N 35°17' E 139°41'0 0.0
2017-Oct-12 11:47N 35°17' E 139°41'0 0.0
2017-Oct-12 10:54N 35°17' E 139°41'0 0.0
2017-Oct-12 10:14N 35°17' E 139°41'0 0.0
2017-Oct-12 09:58N 35°17' E 139°41'0 0.0
2017-Oct-12 09:30N 35°17' E 139°41'0 0.0
2017-Oct-12 09:00N 35°17' E 139°41'0 0.0
2017-Oct-12 08:14N 35°17' E 139°41'0 0.0
2017-Oct-12 07:48N 35°17' E 139°41'0 0.0
2017-Oct-12 06:41N 35°17' E 139°41'0 0.0
2017-Oct-12 06:27N 35°17' E 139°41'0 0.0
2017-Oct-12 05:49N 35°17' E 139°41'0 0.0
2017-Oct-12 04:50N 35°17' E 139°41'0 0.0
2017-Oct-12 04:23N 35°17' E 139°41'0 0.0
2017-Oct-12 03:53N 35°17' E 139°41'0 0.0
2017-Oct-12 03:29N 35°17' E 139°41'0 0.0
2017-Oct-12 02:50N 35°17' E 139°41'0 0.0
2017-Oct-12 02:23N 35°17' E 139°41'0 0.0
2017-Oct-12 01:50N 35°17' E 139°41'1 3.1
2017-Oct-12 01:30N 35°18' E 139°41'612.1
2017-Oct-12 01:01N 35°23' E 139°46'4 6.0
2017-Oct-12 00:24N 35°21' E 139°49'0 0.1
2017-Oct-11 23:56N 35°21' E 139°49'1 0.5
2017-Oct-11 21:45N 35°22' E 139°49'1 1.0
2017-Oct-11 21:13N 35°22' E 139°49'5 6.4
2017-Oct-11 20:24N 35°18' E 139°45'511.9
2017-Oct-11 19:58N 35°13' E 139°47'3 7.2
2017-Oct-11 19:30N 35°10' E 139°47'3 5.4
2017-Oct-11 19:00N 35°12' E 139°45'2 4.3
2017-Oct-11 18:30N 35°13' E 139°43'0 0.0
2017-Oct-11 17:59N 35°13' E 139°43'0 0.0
2017-Oct-11 17:30N 35°13' E 139°43'0 0.0
2017-Oct-11 17:00N 35°13' E 139°43'5 0.3
2017-Oct-10 23:40N 35°18' E 139°39'1 5.2
2017-Oct-10 23:30N 35°18' E 139°40'0 0.6
2017-Oct-10 23:00N 35°19' E 139°40'1 1.7
2017-Oct-10 22:09N 35°17' E 139°39'0 1.6
2017-Oct-10 21:56N 35°18' E 139°39'  

Dump ship's entire track history